Time;durP1;ratioP1;P1;durP2;ratioP2;P2;SDS_P1;SDS_P2;PMS_P1;PMS_P2;Temp;Humidity;BMP_temperature;BMP_pressure;BME280_temperature;BME280_humidity;BME280_pressure;Samples;Min_cycle;Max_cycle;Signal;HPM_P1;HPM_P2
2023/10/14 00:01:31;;;;;;;6.95;5.13;;;22.90;39.00;;;23.92;35.34;96923.03;5030630;28;20258;-54
2023/10/14 00:04:01;;;;;;;11.98;5.43;;;22.90;41.80;;;23.95;35.07;96901.56;5030258;28;20049;-50
2023/10/14 00:06:29;;;;;;;10.18;4.90;;;22.80;42.30;;;23.97;35.26;96920.34;5023269;28;20406;-53
2023/10/14 00:09:01;;;;;;;9.25;3.90;;;22.80;41.50;;;24.03;35.10;96923.91;5030141;28;20045;-54
2023/10/14 00:11:35;;;;;;;5.70;4.45;;;22.80;41.50;;;23.96;35.32;96921.41;5030456;28;20416;-53
2023/10/14 00:14:14;;;;;;;5.55;4.20;;;22.80;42.50;;;23.97;35.52;96920.34;5030372;28;20441;-54
2023/10/14 00:16:48;;;;;;;7.30;3.90;;;22.70;42.40;;;23.92;35.97;96915.72;5030121;28;20049;-51
2023/10/14 00:19:18;;;;;;;6.50;4.20;;;22.70;44.10;;;23.87;35.88;96921.09;5028876;28;20042;-52
2023/10/14 00:21:49;;;;;;;7.50;4.57;;;22.70;43.00;;;23.92;35.97;96925.75;5029274;28;20049;-52
2023/10/14 00:24:28;;;;;;;7.70;4.72;;;22.70;42.90;;;23.90;35.90;96915.13;5030027;28;20060;-52
2023/10/14 00:27:07;;;;;;;6.03;4.38;;;22.70;42.90;;;23.94;36.13;96918.97;5030168;28;20052;-52
2023/10/14 00:29:36;;;;;;;5.75;4.50;;;22.70;44.00;;;23.86;36.71;96933.03;5029189;28;20421;-52
2023/10/14 00:32:04;;;;;;;5.50;4.28;;;22.60;44.00;;;23.80;36.77;96925.13;5028384;28;20041;-50
2023/10/14 00:34:32;;;;;;;5.63;4.43;;;22.50;44.00;;;23.78;37.00;96919.97;5030108;28;20037;-52
2023/10/14 00:37:00;;;;;;;6.82;4.45;;;22.50;44.30;;;23.75;37.33;96915.03;5033005;28;20029;-54
2023/10/14 00:39:28;;;;;;;6.63;4.15;;;22.50;45.10;;;23.71;37.36;96912.03;5032081;28;20049;-53
2023/10/14 00:41:58;;;;;;;6.25;4.80;;;22.50;44.80;;;23.70;37.66;96904.94;5033547;28;20037;-54
2023/10/14 00:44:26;;;;;;;10.60;4.45;;;22.40;45.10;;;23.71;37.54;96897.59;5024514;28;20050;-53
2023/10/14 00:46:55;;;;;;;10.30;4.53;;;22.40;45.20;;;23.69;37.68;96894.34;5033420;28;20045;-52
2023/10/14 00:49:31;;;;;;;5.22;4.43;;;22.40;45.50;;;23.62;38.36;96897.31;5033014;28;20045;-54
2023/10/14 00:52:09;;;;;;;6.93;4.63;;;22.40;46.10;;;23.62;38.59;96886.44;5032113;28;20072;-51
2023/10/14 00:54:58;;;;;;;6.35;4.43;;;22.40;46.80;;;23.58;38.40;96888.03;5032621;28;20540;-54
2023/10/14 00:57:38;;;;;;;6.43;5.10;;;22.30;46.40;;;23.58;38.35;96890.75;5032640;28;20034;-54
2023/10/14 01:00:11;;;;;;;7.10;4.50;;;22.30;46.20;;;23.46;38.57;96892.84;5033353;28;20040;-40
2023/10/14 01:02:39;;;;;;;8.50;4.85;;;22.20;46.30;;;23.50;38.43;96892.06;5033134;28;20049;-41
2023/10/14 01:05:14;;;;;;;5.43;4.93;;;22.20;46.80;;;23.55;38.16;96891.28;5033477;28;20049;-42
2023/10/14 01:07:42;;;;;;;5.05;4.00;;;22.20;45.90;;;23.53;38.17;96885.28;5031777;28;20053;-41
2023/10/14 01:10:12;;;;;;;6.63;4.03;;;22.20;46.40;;;23.47;38.55;96886.34;5031541;28;20060;-41
2023/10/14 01:12:53;;;;;;;7.82;4.30;;;22.10;47.50;;;23.42;38.60;96880.88;5032777;28;20508;-41
2023/10/14 01:15:22;;;;;;;5.93;5.05;;;22.00;46.80;;;23.35;38.64;96890.06;5032996;28;20433;-41
2023/10/14 01:17:53;;;;;;;7.97;4.53;;;22.00;46.90;;;23.30;38.78;96887.34;5031992;28;20046;-41
2023/10/14 01:23:00;;;;;;;8.77;4.68;;;22.00;47.10;;;23.31;38.76;96878.09;5032663;28;20085;-41
2023/10/14 01:25:30;;;;;;;7.65;4.63;;;22.00;47.10;;;23.22;39.31;96881.56;5024101;28;20417;-41
2023/10/14 01:27:59;;;;;;;7.30;4.80;;;21.90;48.10;;;23.25;39.22;96883.78;5031585;28;20053;-54
2023/10/14 01:30:32;;;;;;;7.40;4.65;;;21.90;47.70;;;23.17;39.25;96883.16;5032921;28;20053;-50
2023/10/14 01:33:16;;;;;;;7.30;4.43;;;21.80;47.90;;;23.16;39.49;96883.41;5032665;28;20085;-53
2023/10/14 01:35:45;;;;;;;7.50;5.25;;;21.80;48.40;;;23.18;39.55;96886.69;5030812;28;20075;-55
2023/10/14 01:38:16;;;;;;;6.95;4.40;;;21.80;48.80;;;23.18;39.71;96876.63;5030858;28;20049;-50
2023/10/14 01:40:49;;;;;;;8.10;4.68;;;21.70;49.10;;;23.17;39.93;96879.66;5031903;28;20071;-53
2023/10/14 01:43:17;;;;;;;9.25;4.68;;;21.70;48.90;;;23.11;40.03;96877.94;5030941;28;20053;-53
2023/10/14 01:46:00;;;;;;;10.80;5.13;;;21.70;49.30;;;23.08;40.59;96879.28;5032339;28;20038;-51
2023/10/14 01:48:31;;;;;;;8.98;5.72;;;21.70;49.80;;;23.04;40.91;96883.59;5032065;28;20064;-54
2023/10/14 01:50:59;;;;;;;6.25;5.00;;;21.60;50.80;;;23.03;41.04;96890.13;5032505;28;20512;-51
2023/10/14 01:53:32;;;;;;;8.55;4.78;;;21.50;51.10;;;22.95;41.11;96883.25;5030994;28;20052;-53
2023/10/14 01:56:02;;;;;;;9.55;6.00;;;21.50;50.60;;;22.94;41.10;96872.66;5014711;28;20428;-54
2023/10/14 01:58:33;;;;;;;6.68;5.68;;;21.60;51.00;;;22.93;41.37;96879.94;5014689;28;20543;-51
2023/10/14 02:01:15;;;;;;;8.63;5.20;;;21.50;50.80;;;22.98;41.09;96863.72;5031374;28;20056;-53
2023/10/14 02:03:50;;;;;;;8.73;5.57;;;21.60;51.40;;;22.97;41.23;96872.94;5024820;28;20041;-52
2023/10/14 02:06:25;;;;;;;9.07;6.15;;;21.60;51.20;;;22.83;41.85;96863.59;5030388;28;20451;-55
2023/10/14 02:08:58;;;;;;;10.57;6.07;;;21.50;51.90;;;22.82;42.33;96859.25;5030481;28;20417;-54
2023/10/14 02:11:33;;;;;;;;;;;21.50;52.70;;;22.80;42.54;96854.09;5030793;28;20060;-55
2023/10/14 02:14:07;;;;;;;8.07;5.13;;;21.50;53.40;;;22.84;42.18;96851.69;5032044;28;19928;-52
2023/10/14 02:16:42;;;;;;;7.85;5.53;;;21.50;52.30;;;22.84;42.23;96848.13;5024221;28;20054;-54
2023/10/14 02:19:36;;;;;;;7.45;5.97;;;21.50;52.60;;;22.84;42.55;96854.38;5029906;28;20049;-53
2023/10/14 02:22:11;;;;;;;7.30;5.85;;;21.50;52.70;;;22.72;43.10;96853.72;5046316;28;20041;-54
2023/10/14 02:24:40;;;;;;;9.27;6.03;;;21.30;54.70;;;22.73;42.81;96850.75;5008002;28;20045;-53
2023/10/14 02:27:12;;;;;;;8.75;4.90;;;21.40;53.30;;;22.66;43.48;96847.44;5031785;28;20093;-55
2023/10/14 02:29:43;;;;;;;8.02;5.38;;;21.40;54.30;;;22.62;43.93;96851.75;5029906;28;20082;-53
2023/10/14 02:32:13;;;;;;;5.15;4.65;;;21.30;54.70;;;22.59;43.68;96841.44;5031416;28;20052;-55
2023/10/14 02:34:45;;;;;;;7.45;5.53;;;21.20;54.90;;;22.58;43.91;96837.88;5030361;28;20033;-55
2023/10/14 02:37:14;;;;;;;8.93;5.20;;;21.20;54.80;;;22.51;44.22;96834.56;5014218;28;20436;-52
2023/10/14 02:39:48;;;;;;;7.05;4.93;;;21.20;55.30;;;22.49;44.27;96825.88;5031195;28;20053;-53
2023/10/14 02:42:16;;;;;;;10.65;5.53;;;21.10;55.50;;;22.47;44.53;96832.63;5030286;28;20049;-51
2023/10/14 02:44:54;;;;;;;8.07;5.38;;;21.10;55.60;;;22.48;44.50;96831.56;5029909;28;20042;-52
2023/10/14 02:47:27;;;;;;;6.30;5.10;;;21.10;55.70;;;22.49;44.34;96827.75;5030998;28;20042;-53
2023/10/14 02:49:57;;;;;;;5.32;4.78;;;21.10;55.90;;;22.43;44.85;96824.19;5029731;28;20421;-53
2023/10/14 02:52:31;;;;;;;7.68;5.38;;;21.10;56.80;;;22.41;44.64;96827.16;5030034;28;20421;-52
2023/10/14 02:57:48;;;;;;;9.73;5.90;;;21.00;56.30;;;22.30;45.45;96835.47;5022543;28;20060;-51
2023/10/14 03:00:30;;;;;;;8.05;5.63;;;21.00;56.60;;;22.33;45.33;96826.78;5030980;28;20053;-53
2023/10/14 03:03:12;;;;;;;9.65;5.97;;;21.00;57.10;;;22.36;45.24;96821.69;5031235;28;20038;-53
2023/10/14 03:05:52;;;;;;;7.13;5.45;;;21.00;56.90;;;22.33;45.58;96816.78;5023690;28;20420;-52
2023/10/14 03:08:20;;;;;;;9.02;5.50;;;21.00;57.30;;;22.37;45.01;96825.22;5030387;28;20050;-53
2023/10/14 03:10:59;;;;;;;7.75;5.10;;;21.00;56.20;;;22.33;45.44;96824.09;5029994;28;20037;-52
2023/10/14 03:13:32;;;;;;;7.80;5.82;;;21.00;56.50;;;22.40;45.24;96825.50;5030846;28;20501;-52
2023/10/14 03:16:00;;;;;;;8.88;6.07;;;21.00;57.10;;;22.39;45.10;96823.06;5029644;28;20053;-53
2023/10/14 03:18:37;;;;;;;11.63;6.97;;;21.00;56.60;;;22.37;45.83;96830.63;5030696;28;20038;-54
2023/10/14 03:21:22;;;;;;;9.45;5.57;;;21.00;57.40;;;22.41;45.18;96820.91;5029616;28;20520;-53
2023/10/14 03:23:50;;;;;;;9.60;5.75;;;21.10;56.50;;;22.39;45.40;96823.91;5023017;28;20052;-53
2023/10/14 03:26:20;;;;;;;9.75;6.10;;;21.10;56.60;;;22.43;45.14;96816.06;5045803;28;20076;-55
2023/10/14 03:28:50;;;;;;;7.13;5.38;;;21.10;56.30;;;22.37;45.20;96820.63;5030366;28;20041;-54
2023/10/14 03:31:19;;;;;;;7.90;5.72;;;21.00;56.80;;;22.45;45.41;96824.75;5030887;28;20053;-51
2023/10/14 03:33:47;;;;;;;9.68;6.07;;;21.10;57.00;;;22.39;45.81;96817.63;5030877;28;20042;-42
2023/10/14 03:36:15;;;;;;;11.55;6.03;;;21.00;57.60;;;22.44;45.52;96825.00;5030470;28;20041;-42
2023/10/14 03:38:55;;;;;;;8.23;6.03;;;21.00;57.20;;;22.37;45.62;96811.66;5022721;28;20484;-42
2023/10/14 03:41:29;;;;;;;7.20;5.32;;;21.00;57.40;;;22.42;45.66;96817.94;5031150;28;20512;-42
2023/10/14 03:46:34;;;;;;;6.00;5.10;;;21.00;57.10;;;22.41;45.26;96801.91;5030498;28;20453;-42
2023/10/14 03:49:11;;;;;;;8.00;6.03;;;21.00;57.50;;;22.35;45.63;96800.25;5030328;28;20041;-42
2023/10/14 03:51:40;;;;;;;8.88;5.93;;;21.00;57.70;;;22.38;45.17;96792.41;5030341;28;20496;-42
2023/10/14 03:54:08;;;;;;;6.47;5.40;;;21.00;56.80;;;22.41;45.56;96801.91;5030417;28;20060;-42
2023/10/14 03:56:43;;;;;;;10.27;5.85;;;21.00;56.60;;;22.43;45.54;96832.34;5030298;28;20543;-42
2023/10/14 03:59:19;;;;;;;16.02;6.85;;;21.00;57.20;;;22.28;48.64;96870.97;5028875;28;20049;-42
2023/10/14 04:01:54;;;;;;;11.48;5.30;;;21.00;61.50;;;21.54;55.21;96895.75;5029081;28;20068;-44
2023/10/14 04:04:23;;;;;;;13.50;6.43;;;19.40;81.50;;;19.71;60.66;96911.91;5030458;28;20041;-42
2023/10/14 04:09:37;;;;;;;7.75;4.97;;;17.10;99.90;;;18.58;63.87;96908.44;5031172;28;20068;-40
2023/10/14 04:15:04;;;;;;;9.48;4.10;;;16.40;99.90;;;17.97;66.37;96899.50;5027039;28;20045;-39
2023/10/14 04:17:33;;;;;;;7.68;4.25;;;16.30;99.90;;;17.95;66.79;96915.06;5033724;28;20049;-39
2023/10/14 04:22:39;;;;;;;7.15;3.70;;;16.00;99.90;;;17.10;70.08;96911.19;5033262;28;20050;-39
2023/10/14 04:25:39;;;;;;;4.75;3.45;;;15.90;99.90;;;17.18;70.21;96924.34;5033802;28;20056;-39
2023/10/14 04:28:30;;;;;;;6.43;3.55;;;15.90;99.90;;;17.17;71.04;96921.88;5028314;28;20421;-39
2023/10/14 04:31:06;;;;;;;6.88;3.70;;;15.90;99.90;;;17.11;71.18;96934.31;5027179;28;20044;-39
2023/10/14 04:33:44;;;;;;;5.22;3.25;;;15.90;99.90;;;17.08;72.09;96932.91;5033642;28;20053;-38
2023/10/14 04:38:43;;;;;;;6.28;3.85;;;15.80;99.90;;;17.00;71.92;96925.13;5033092;28;20052;-39
2023/10/14 04:41:14;;;;;;;6.35;3.75;;;15.80;99.90;;;17.06;72.23;96928.78;5032516;28;20052;-40
2023/10/14 04:46:32;;;;;;;7.53;3.75;;;15.80;99.90;;;17.18;71.78;96924.34;5033540;28;20508;-40
2023/10/14 04:49:06;;;;;;;4.25;3.50;;;15.90;99.90;;;17.21;71.44;96933.81;5031841;28;20049;-40
2023/10/14 04:51:45;;;;;;;5.72;4.43;;;15.90;99.90;;;17.34;70.54;96928.31;5033342;28;20052;-40
2023/10/14 04:54:20;;;;;;;7.10;3.45;;;15.90;99.90;;;17.21;72.07;96931.94;5033204;28;20045;-40
2023/10/14 04:56:48;;;;;;;6.22;3.70;;;16.00;99.90;;;17.26;71.40;96931.31;5025118;28;20045;-40
2023/10/14 04:59:24;;;;;;;6.32;4.03;;;16.00;99.90;;;17.39;70.46;96930.34;5032723;28;20041;-38
2023/10/14 05:01:55;;;;;;;4.85;4.22;;;16.00;99.90;;;17.36;70.92;96933.50;5025693;28;20469;-40
2023/10/14 05:04:29;;;;;;;5.72;4.30;;;16.00;99.90;;;17.38;70.29;96932.22;5015961;28;20052;-39
2023/10/14 05:07:03;;;;;;;6.90;3.70;;;16.00;99.90;;;17.50;70.53;96943.06;5024989;28;20056;-39
2023/10/14 05:09:39;;;;;;;6.93;4.53;;;16.00;99.90;;;17.55;69.51;96947.78;5032340;28;20049;-39
2023/10/14 05:12:08;;;;;;;9.55;4.30;;;16.00;99.90;;;17.56;69.75;96936.78;5031459;28;20053;-39
2023/10/14 05:14:38;;;;;;;8.23;4.18;;;16.00;99.90;;;17.63;69.45;96940.25;5032840;28;20049;-39
2023/10/14 05:17:16;;;;;;;6.47;4.47;;;16.10;99.90;;;17.65;69.33;96956.16;5032894;28;20038;-40
2023/10/14 05:19:47;;;;;;;6.15;3.83;;;16.10;99.90;;;17.73;68.82;96949.69;5032347;28;20041;-40
2023/10/14 05:22:19;;;;;;;8.55;5.30;;;16.10;99.90;;;17.82;68.31;96961.81;5030324;28;20413;-40
2023/10/14 05:24:49;;;;;;;6.20;4.18;;;16.20;99.90;;;17.83;68.19;96968.81;5033186;28;20037;-40
2023/10/14 05:27:21;;;;;;;5.43;3.53;;;16.20;99.90;;;17.76;67.98;96966.22;5033025;28;20049;-39
2023/10/14 05:29:52;;;;;;;6.35;4.00;;;16.20;99.90;;;17.85;67.91;96964.88;5031232;28;20509;-39
2023/10/14 05:32:24;;;;;;;7.22;4.25;;;16.20;99.90;;;17.89;67.72;96984.09;5031182;28;20049;-39
2023/10/14 05:34:53;;;;;;;6.63;3.53;;;16.20;99.90;;;18.01;67.30;96986.88;5024880;28;20046;-40
2023/10/14 05:37:22;;;;;;;7.22;3.80;;;16.20;99.90;;;18.00;67.19;96982.53;5032513;28;20042;-40
2023/10/14 05:39:54;;;;;;;6.72;3.72;;;16.20;99.90;;;17.99;67.07;96989.81;5032109;28;20044;-40
2023/10/14 05:42:24;;;;;;;7.22;3.90;;;16.20;99.90;;;18.10;66.62;96990.91;5032355;28;20403;-39
2023/10/14 05:45:04;;;;;;;6.95;3.80;;;16.30;99.90;;;18.06;66.54;96993.22;5031099;28;20052;-39
2023/10/14 05:47:32;;;;;;;5.07;3.22;;;16.20;99.90;;;17.84;66.20;97005.50;5031675;28;20076;-39
2023/10/14 05:50:00;;;;;;;7.78;3.92;;;16.30;99.90;;;17.85;66.37;97007.13;5032213;28;20436;-39
2023/10/14 05:52:28;;;;;;;6.15;3.42;;;16.20;99.90;;;17.93;66.02;97004.16;5032021;28;20049;-39
2023/10/14 05:54:55;;;;;;;4.82;3.38;;;16.20;99.90;;;18.05;65.78;97010.44;5023808;28;20428;-40
2023/10/14 05:57:23;;;;;;;5.68;3.58;;;16.20;99.90;;;18.16;65.44;97019.63;5031795;28;20041;-40
2023/10/14 05:59:51;;;;;;;8.02;3.35;;;16.30;99.90;;;18.02;65.19;97026.22;5030803;28;20038;-40
2023/10/14 06:02:19;;;;;;;5.25;2.80;;;16.30;99.90;;;18.12;65.02;97023.00;5032191;28;20429;-41
2023/10/14 06:04:50;;;;;;;5.07;2.85;;;16.40;99.90;;;18.15;64.49;97027.97;5031787;28;20046;-40
2023/10/14 06:07:18;;;;;;;4.20;2.45;;;16.40;99.90;;;18.22;64.32;97026.84;5031639;28;20056;-42
2023/10/14 06:09:47;;;;;;;4.10;2.78;;;16.40;99.90;;;18.31;64.19;97032.75;5031688;28;20049;-41
2023/10/14 06:12:16;;;;;;;5.47;3.95;;;16.50;99.90;;;18.28;63.99;97031.31;5031816;28;20057;-40
2023/10/14 06:14:46;;;;;;;5.13;2.70;;;16.50;98.30;;;18.40;63.76;97042.16;5032207;28;20037;-41
2023/10/14 06:17:14;;;;;;;5.03;2.90;;;16.50;99.90;;;18.46;63.49;97037.75;5031682;28;20041;-41
2023/10/14 06:19:43;;;;;;;5.07;3.50;;;16.60;99.90;;;18.48;63.31;97036.47;5031371;28;20041;-41
2023/10/14 06:22:13;;;;;;;4.97;2.55;;;16.70;99.90;;;18.40;63.16;97042.16;5031320;28;20413;-40
2023/10/14 06:24:42;;;;;;;6.07;2.22;;;16.70;97.60;;;18.42;63.10;97047.34;5031530;28;20072;-41
2023/10/14 06:27:20;;;;;;;5.05;2.42;;;16.70;99.10;;;18.41;63.31;97054.59;5031738;28;20460;-42
2023/10/14 06:29:50;;;;;;;5.25;2.58;;;16.70;98.30;;;18.42;63.39;97055.44;5030562;28;20049;-41
2023/10/14 06:32:18;;;;;;;3.22;1.75;;;16.70;99.30;;;18.54;62.92;97060.88;5031078;28;20050;-41
2023/10/14 06:34:57;;;;;;;3.45;2.05;;;16.80;99.10;;;18.59;62.34;97066.41;5030795;28;20412;-41
2023/10/14 06:37:27;;;;;;;5.10;2.00;;;16.80;98.30;;;18.56;62.22;97074.94;5029900;28;20421;-41
2023/10/14 06:39:56;;;;;;;3.85;1.67;;;16.80;96.90;;;18.59;62.15;97083.41;5031481;28;20417;-42
2023/10/14 06:42:26;;;;;;;5.75;1.80;;;16.90;96.30;;;18.41;62.00;97086.09;5031340;28;20052;-41
2023/10/14 06:44:55;;;;;;;2.33;1.75;;;16.80;92.90;;;18.52;62.03;97089.94;5031120;28;20037;-42
2023/10/14 06:47:23;;;;;;;4.72;1.83;;;16.90;94.30;;;18.64;61.88;97086.22;5031042;28;20052;-41
2023/10/14 06:49:51;;;;;;;3.28;1.70;;;16.90;95.80;;;18.68;61.67;97092.00;5030790;28;20049;-42
2023/10/14 06:52:19;;;;;;;2.42;1.90;;;16.90;95.60;;;18.74;61.37;97087.59;5031174;28;20053;-44
2023/10/14 06:54:47;;;;;;;2.83;1.65;;;17.00;93.60;;;18.69;61.36;97090.97;5029705;28;20057;-41
2023/10/14 06:57:16;;;;;;;5.32;2.05;;;17.10;92.70;;;18.78;61.16;97083.38;5030721;28;20107;-43
2023/10/14 06:59:45;;;;;;;2.60;1.70;;;17.10;93.20;;;18.83;60.80;97094.34;5029431;28;20472;-42
2023/10/14 07:02:13;;;;;;;3.58;2.20;;;17.20;91.10;;;18.87;60.54;97087.44;5031438;28;20041;-53
2023/10/14 07:04:41;;;;;;;2.88;1.58;;;17.40;89.40;;;18.92;60.05;97097.53;5030917;28;20112;-50
2023/10/14 07:07:09;;;;;;;3.35;2.05;;;17.50;88.20;;;18.85;60.17;97098.44;5030777;28;20041;-50
2023/10/14 07:09:44;;;;;;;5.50;1.55;;;17.50;88.80;;;18.89;60.16;97115.81;5030178;28;20049;-54
2023/10/14 07:12:14;;;;;;;6.28;2.63;;;17.60;86.90;;;18.96;59.91;97110.34;5031131;28;20041;-49
2023/10/14 07:14:46;;;;;;;5.60;2.38;;;17.70;85.40;;;18.89;59.61;97115.81;5030824;28;20044;-51
2023/10/14 07:17:18;;;;;;;4.15;1.63;;;17.70;84.20;;;18.94;59.69;97119.72;5031474;28;20053;-52
2023/10/14 07:19:49;;;;;;;4.95;2.28;;;17.70;85.20;;;19.04;59.54;97117.31;5030708;28;20056;-53
2023/10/14 07:22:23;;;;;;;2.58;1.55;;;17.80;86.50;;;19.10;58.98;97123.66;5030757;28;20060;-52
2023/10/14 07:24:52;;;;;;;2.38;2.03;;;17.80;83.00;;;19.10;59.13;97113.69;5030815;28;20060;-54
2023/10/14 07:27:20;;;;;;;2.75;2.33;;;17.90;85.50;;;19.28;58.94;97112.81;5030844;28;20056;-54
2023/10/14 07:29:48;;;;;;;3.05;1.73;;;18.00;86.30;;;19.31;58.77;97119.63;5028907;28;20425;-52
2023/10/14 07:32:19;;;;;;;3.03;1.60;;;18.00;83.10;;;19.27;58.72;97111.19;5012431;28;20260;-50
2023/10/14 07:34:53;;;;;;;3.45;2.58;;;18.00;83.50;;;19.27;58.40;97116.59;5016505;28;20057;-53
2023/10/14 07:37:20;;;;;;;4.68;1.77;;;18.00;81.70;;;19.25;58.27;97114.09;5026462;28;20062;-51
2023/10/14 07:39:52;;;;;;;3.15;1.95;;;18.10;82.30;;;19.33;58.58;97104.00;5016748;28;20045;-52
2023/10/14 07:42:21;;;;;;;3.47;3.00;;;18.20;84.10;;;19.21;58.81;97120.16;5024014;28;20046;-54
2023/10/14 07:44:49;;;;;;;5.60;1.75;;;18.10;82.40;;;19.13;58.93;97112.41;5032191;28;20073;-54
2023/10/14 07:47:16;;;;;;;2.53;1.67;;;18.00;83.70;;;19.23;59.23;97116.22;5033357;28;20269;-53
2023/10/14 07:49:44;;;;;;;3.50;1.70;;;18.00;84.60;;;19.22;59.52;97114.56;5033356;28;20064;-52
2023/10/14 07:52:14;;;;;;;2.90;1.52;;;18.10;85.70;;;19.20;59.77;97116.66;5034879;28;20053;-53
2023/10/14 07:54:42;;;;;;;3.08;1.50;;;18.10;85.70;;;19.11;60.23;97118.03;5034272;28;20041;-50
2023/10/14 07:57:13;;;;;;;3.33;1.30;;;17.90;87.10;;;19.32;59.83;97118.56;5034314;28;20045;-50
2023/10/14 07:59:43;;;;;;;3.80;1.77;;;18.00;87.90;;;19.15;60.69;97123.78;5033953;28;20505;-50
2023/10/14 08:02:13;;;;;;;5.15;1.58;;;17.90;88.00;;;19.24;60.32;97123.25;5034235;28;20041;-54
2023/10/14 08:04:45;;;;;;;5.55;2.00;;;17.90;88.70;;;19.40;59.62;97129.03;5034262;28;20045;-51
2023/10/14 08:07:14;;;;;;;2.67;1.52;;;18.00;88.80;;;19.22;60.63;97128.03;5027107;28;20037;-52
2023/10/14 08:09:43;;;;;;;2.10;1.50;;;17.90;88.80;;;19.17;60.68;97127.91;5033780;28;20052;-53
2023/10/14 08:12:14;;;;;;;3.58;2.15;;;17.90;89.00;;;19.23;60.76;97131.56;5033741;28;20038;-49
2023/10/14 08:14:41;;;;;;;4.47;2.03;;;18.00;89.30;;;19.27;60.71;97141.69;5033969;28;20041;-51
2023/10/14 08:17:11;;;;;;;2.38;1.60;;;18.00;89.00;;;19.14;60.78;97133.75;5033851;28;20046;-50
2023/10/14 08:19:39;;;;;;;2.10;1.75;;;17.90;88.80;;;19.38;60.23;97136.53;5033648;28;20053;-52
2023/10/14 08:22:08;;;;;;;2.05;1.52;;;18.00;88.90;;;19.30;60.13;97145.78;5033663;28;20064;-50
2023/10/14 08:24:38;;;;;;;6.47;1.90;;;18.00;87.30;;;19.41;59.99;97136.91;5033625;28;20049;-49
2023/10/14 08:27:05;;;;;;;3.97;1.70;;;18.10;86.70;;;19.35;59.78;97145.09;5033668;28;20048;-50
2023/10/14 08:29:33;;;;;;;3.65;1.58;;;18.10;86.00;;;19.35;59.46;97135.13;5033693;28;20048;-53
2023/10/14 08:32:00;;;;;;;3.88;1.50;;;18.10;84.90;;;19.31;59.14;97149.31;5032870;28;20044;-49
2023/10/14 08:34:28;;;;;;;2.75;1.65;;;18.10;84.10;;;19.44;59.10;97154.50;5047904;28;20056;-51
2023/10/14 08:36:56;;;;;;;3.05;1.92;;;18.20;85.20;;;19.28;59.27;97166.78;5034251;28;20052;-49
2023/10/14 08:39:24;;;;;;;2.83;1.67;;;18.20;83.70;;;19.38;59.15;97164.34;5033327;28;20046;-51
2023/10/14 08:41:57;;;;;;;5.57;1.52;;;18.30;83.60;;;19.44;59.96;97173.41;5032688;28;20061;-53
2023/10/14 08:44:31;;;;;;;4.47;2.00;;;18.30;86.80;;;19.47;60.72;97197.25;5033948;28;20044;-52
2023/10/14 08:47:00;;;;;;;2.05;1.30;;;18.30;89.20;;;19.18;62.11;97210.50;5033608;28;20075;-51
2023/10/14 08:49:33;;;;;;;4.33;1.90;;;17.90;91.40;;;18.80;62.61;97211.56;5016424;28;20049;-52
2023/10/14 08:52:09;;;;;;;2.58;1.30;;;17.30;97.10;;;18.31;62.89;97210.56;5032020;28;20292;-53
2023/10/14 08:54:38;;;;;;;1.83;1.30;;;16.50;99.90;;;17.61;65.18;97211.47;5031939;28;20049;-51
2023/10/14 08:57:05;;;;;;;1.27;1.17;;;15.90;99.90;;;17.42;65.97;97207.84;5032053;28;20541;-52
2023/10/14 08:59:33;;;;;;;2.72;1.35;;;15.70;99.90;;;17.41;66.22;97232.28;5033065;28;20045;-54
2023/10/14 09:02:01;;;;;;;2.03;1.33;;;15.70;99.90;;;17.15;67.62;97233.25;5032248;28;20528;-52
2023/10/14 09:04:30;;;;;;;1.40;1.30;;;15.60;99.90;;;17.16;67.91;97240.25;5032280;28;20049;-54
2023/10/14 09:07:02;;;;;;;1.42;1.33;;;15.60;99.90;;;17.26;67.32;97248.72;5033052;28;20053;-50
2023/10/14 09:09:32;;;;;;;1.70;1.27;;;15.70;99.90;;;17.13;68.25;97245.03;5030768;28;20050;-51
2023/10/14 09:12:12;;;;;;;3.42;1.35;;;15.60;99.90;;;17.07;69.13;97234.31;5033063;28;20057;-51
2023/10/14 09:14:42;;;;;;;2.03;1.20;;;15.60;99.90;;;17.08;69.06;97233.28;5015600;28;20057;-52
2023/10/14 09:17:10;;;;;;;2.50;1.25;;;15.50;99.90;;;16.99;69.31;97237.22;5032067;28;20045;-43
2023/10/14 09:19:45;;;;;;;1.40;1.30;;;15.50;99.90;;;16.98;69.26;97240.94;5031861;28;20516;-45
2023/10/14 09:22:35;;;;;;;3.10;1.70;;;15.50;99.90;;;17.04;69.77;97232.88;5020944;28;20053;-43
2023/10/14 09:25:06;;;;;;;2.17;1.58;;;15.60;99.90;;;16.87;70.82;97240.56;5021997;28;20049;-42
2023/10/14 09:27:33;;;;;;;2.28;1.65;;;15.50;99.90;;;17.05;70.02;97245.25;5026264;28;20448;-44
2023/10/14 09:30:03;;;;;;;3.10;1.88;;;15.70;99.90;;;17.08;70.58;97247.53;5028403;28;20042;-42
2023/10/14 09:32:32;;;;;;;3.47;1.27;;;15.70;99.90;;;17.14;70.05;97253.94;5024740;28;20041;-43
2023/10/14 09:35:00;;;;;;;1.58;1.48;;;15.80;99.90;;;17.11;70.42;97244.41;5019421;28;20053;-43
2023/10/14 09:37:27;;;;;;;1.75;1.40;;;15.80;99.90;;;17.12;70.83;97259.53;5020386;28;20421;-43
2023/10/14 09:40:06;;;;;;;1.52;1.30;;;15.90;99.90;;;17.26;69.99;97257.59;5031468;28;20050;-45
2023/10/14 09:42:35;;;;;;;2.20;1.30;;;16.00;99.90;;;17.24;69.26;97250.81;5030593;28;20038;-44
2023/10/14 09:45:10;;;;;;;1.58;1.10;;;15.90;99.90;;;17.10;68.80;97255.41;5031475;28;20049;-43
2023/10/14 09:47:45;;;;;;;1.25;1.15;;;15.90;99.90;;;17.25;68.48;97247.91;5032184;28;20053;-45
2023/10/14 09:50:15;;;;;;;1.45;1.30;;;16.00;99.90;;;17.24;67.64;97250.81;5031096;28;20063;-43
2023/10/14 09:52:45;;;;;;;1.30;1.20;;;15.90;99.90;;;17.29;67.47;97250.97;5032717;28;20061;-43
2023/10/14 09:55:17;;;;;;;2.40;1.23;;;15.90;99.90;;;17.21;67.58;97253.91;5031445;28;20089;-46
2023/10/14 09:57:47;;;;;;;1.42;1.13;;;15.90;99.90;;;17.27;67.45;97240.44;5031281;28;20049;-43
2023/10/14 10:00:17;;;;;;;1.35;1.17;;;15.90;99.90;;;17.30;67.07;97253.44;5031118;28;20068;-43
2023/10/14 10:02:49;;;;;;;1.20;1.10;;;15.80;99.90;;;17.40;66.66;97247.59;5032173;28;20052;-45
2023/10/14 10:05:38;;;;;;;1.40;1.30;;;15.90;99.90;;;17.46;66.05;97240.53;5015054;28;20041;-42
2023/10/14 10:09:03;;;;;;;1.38;1.13;;;15.90;99.90;;;17.58;66.34;97248.75;5030470;28;20045;-43
2023/10/14 10:11:35;;;;;;;1.20;1.00;;;16.10;99.90;;;17.53;66.09;97241.34;5024115;28;20544;-42
2023/10/14 10:14:12;;;;;;;1.25;1.10;;;16.00;99.90;;;17.66;65.97;97248.50;5029584;28;20060;-43
2023/10/14 10:16:42;;;;;;;1.20;1.10;;;16.10;99.90;;;17.67;65.50;97255.56;5032573;28;20049;-43
2023/10/14 10:19:10;;;;;;;1.45;1.17;;;16.20;99.90;;;17.45;66.10;97249.69;5032027;28;20052;-45
2023/10/14 10:21:43;;;;;;;1.40;1.08;;;16.00;99.90;;;17.40;66.01;97250.31;5032179;28;20038;-42
2023/10/14 10:24:24;;;;;;;1.63;1.38;;;15.90;99.90;;;17.43;66.74;97267.91;5030464;28;20681;-46
2023/10/14 10:27:03;;;;;;;1.25;1.10;;;15.90;99.90;;;17.38;66.68;97247.00;5031530;28;20056;-43
2023/10/14 10:29:33;;;;;;;1.60;1.50;;;15.90;99.90;;;17.32;66.76;97248.69;5024840;28;20041;-44
2023/10/14 10:32:11;;;;;;;1.50;1.10;;;15.90;99.90;;;17.49;66.42;97245.50;5031563;28;20425;-44
2023/10/14 10:35:19;;;;;;;1.45;1.30;;;16.00;99.90;;;17.58;66.41;97241.50;5031670;28;20049;-43
2023/10/14 10:37:56;;;;;;;1.20;1.10;;;16.00;99.90;;;17.73;66.00;97246.59;5063743;28;20118;-42
2023/10/14 10:40:27;;;;;;;1.48;1.20;;;16.10;99.90;;;17.81;65.97;97250.91;5061125;28;20047;-41
2023/10/14 10:42:58;;;;;;;1.48;1.05;;;16.10;99.90;;;17.86;65.99;97249.25;5046577;28;20068;-41
2023/10/14 10:45:32;;;;;;;1.20;1.10;;;16.20;99.90;;;17.87;65.78;97244.69;5023818;28;20049;-43
2023/10/14 10:48:03;;;;;;;1.20;1.10;;;16.20;99.90;;;17.82;65.77;97249.88;5029837;28;20490;-41
2023/10/14 10:50:39;;;;;;;1.20;1.10;;;16.10;99.90;;;17.56;65.68;97243.59;5031170;28;20045;-45
2023/10/14 10:53:10;;;;;;;1.52;1.05;;;15.90;99.90;;;17.62;65.78;97248.13;5029884;28;20049;-43
2023/10/14 10:55:48;;;;;;;1.38;1.10;;;15.90;99.90;;;17.59;65.81;97245.03;5031138;28;20041;-41
2023/10/14 10:58:16;;;;;;;7.85;6.32;;;15.90;99.90;;;17.56;65.29;97251.66;5030907;28;20520;-41
2023/10/14 11:00:46;;;;;;;1.80;1.30;;;15.80;99.90;;;17.46;65.18;97246.75;5030126;28;20033;-42
2023/10/14 11:03:16;;;;;;;1.15;1.05;;;15.80;99.90;;;17.42;65.04;97253.59;5029670;28;20505;-41